createdAt,value
2018-12-16T06:26:58.391Z,-3.70
2018-12-16T06:29:27.358Z,-3.50
2018-12-16T06:34:52.036Z,-3.30
2018-12-16T06:37:19.980Z,-3.30
2018-12-16T06:54:10.683Z,-3.10
2018-12-16T06:56:38.209Z,-3.00
2018-12-16T06:59:06.686Z,-2.90
2018-12-16T07:01:34.256Z,-2.80
2018-12-16T07:06:57.141Z,-2.80
2018-12-16T07:09:26.208Z,-2.70
2018-12-16T07:11:54.332Z,-2.70
2018-12-16T07:14:22.147Z,-2.70
2018-12-16T07:16:50.272Z,-2.60
2018-12-16T07:19:18.646Z,-2.50
2018-12-16T07:21:47.232Z,-2.40
2018-12-16T07:24:14.758Z,-2.30
2018-12-16T07:26:43.596Z,-2.30
2018-12-16T07:29:13.827Z,-2.30
2018-12-16T07:31:43.003Z,-2.20
2018-12-16T07:34:11.080Z,-2.20
2018-12-16T07:36:44.289Z,-2.10
2018-12-16T07:39:12.514Z,-2.00
2018-12-16T07:41:49.916Z,-2.00
2018-12-16T07:44:17.902Z,-1.90
2018-12-16T07:46:47.077Z,-1.90
2018-12-16T07:49:16.249Z,-1.90
2018-12-16T07:51:44.848Z,-1.80
2018-12-16T07:54:16.049Z,-1.80
2018-12-16T07:56:42.599Z,-1.70
2018-12-16T07:59:10.703Z,-1.60
2018-12-16T08:01:38.246Z,-1.40
2018-12-16T08:04:05.795Z,-1.30
2018-12-16T08:06:33.335Z,-1.30
2018-12-16T08:09:00.991Z,-1.20
2018-12-16T08:11:28.592Z,-1.40
2018-12-16T08:13:57.505Z,-1.40
2018-12-16T08:16:25.067Z,-1.20
2018-12-16T08:18:52.628Z,-1.10
2018-12-16T08:21:20.234Z,-1.00
2018-12-16T08:23:47.811Z,-0.90
2018-12-16T08:26:15.496Z,-0.70
2018-12-16T08:28:57.995Z,-0.60
2018-12-16T08:31:40.943Z,-0.50
2018-12-16T08:34:08.627Z,-0.40
2018-12-16T08:36:48.890Z,-0.30
2018-12-16T08:39:16.534Z,-0.20
2018-12-16T08:42:01.283Z,-0.40
2018-12-16T08:44:36.392Z,-0.60
2018-12-16T08:47:33.134Z,-0.60
2018-12-16T08:50:29.554Z,-0.60
2018-12-16T08:53:18.590Z,-0.40
2018-12-16T08:56:07.646Z,-0.50
2018-12-16T08:58:56.197Z,-0.30
2018-12-16T09:01:37.319Z,-0.10
2018-12-16T09:04:26.305Z,0.20
2018-12-16T09:07:06.764Z,0.40
2018-12-16T09:09:44.802Z,0.60
2018-12-16T09:12:33.886Z,0.60
2018-12-16T09:15:01.415Z,0.70
2018-12-16T09:17:36.205Z,0.90
2018-12-16T09:20:11.906Z,0.80
2018-12-16T09:22:56.585Z,0.70
2018-12-16T09:25:31.500Z,0.50
2018-12-16T09:28:19.986Z,0.60
2018-12-16T09:30:58.357Z,0.70
2018-12-16T09:33:42.942Z,0.80
2018-12-16T09:36:19.060Z,0.90
2018-12-16T09:38:53.882Z,1.00
2018-12-16T09:41:36.203Z,1.00
2018-12-16T09:44:19.238Z,1.20
2018-12-16T09:47:02.263Z,1.30
2018-12-16T09:49:38.303Z,1.10
2018-12-16T09:52:05.846Z,1.00
2018-12-16T09:54:33.351Z,1.00
2018-12-16T09:57:01.134Z,1.00
2018-12-16T09:59:29.252Z,1.10
2018-12-16T10:01:57.441Z,1.30
2018-12-16T10:04:25.958Z,1.50
2018-12-16T10:06:54.456Z,1.70
2018-12-16T10:09:36.519Z,1.90
2018-12-16T10:12:21.093Z,1.90
2018-12-16T10:14:57.139Z,2.10
2018-12-16T10:17:24.716Z,2.10
2018-12-16T10:19:52.511Z,2.20
2018-12-16T10:22:20.163Z,2.30
2018-12-16T10:24:51.227Z,2.30
2018-12-16T10:27:17.570Z,2.40
2018-12-16T10:29:45.294Z,2.40
2018-12-16T10:32:12.944Z,2.40
2018-12-16T10:34:40.601Z,2.40
2018-12-16T10:37:08.114Z,2.40
2018-12-16T10:39:36.335Z,2.30
2018-12-16T10:42:04.110Z,2.40
2018-12-16T10:45:06.439Z,2.40
2018-12-16T10:47:48.684Z,2.40
2018-12-16T10:50:26.032Z,2.50
2018-12-16T10:53:14.294Z,2.50
2018-12-16T10:55:57.497Z,2.50
2018-12-16T10:58:46.950Z,2.50
2018-12-16T11:01:31.867Z,2.40
2018-12-16T11:04:20.682Z,2.40
2018-12-16T11:07:06.745Z,2.40
2018-12-16T11:09:51.933Z,2.50
2018-12-16T11:12:37.588Z,2.60
2018-12-16T11:15:26.803Z,2.70
2018-12-16T11:18:09.691Z,2.80
2018-12-16T11:20:54.466Z,2.90
2018-12-16T11:23:43.173Z,3.00
2018-12-16T11:30:12.579Z,3.20
2018-12-16T11:32:40.125Z,3.40
2018-12-16T11:35:07.948Z,3.60
2018-12-16T11:37:36.084Z,3.60
2018-12-16T11:40:04.757Z,3.60
2018-12-16T11:42:32.372Z,3.60
2018-12-16T11:45:00.706Z,3.70
2018-12-16T11:47:28.764Z,3.90
2018-12-16T11:50:13.400Z,3.80
2018-12-16T11:52:51.073Z,3.70
2018-12-16T11:59:20.694Z,3.60
2018-12-16T12:01:48.962Z,3.70
2018-12-16T12:04:25.017Z,3.50
2018-12-16T12:07:06.297Z,3.50
2018-12-16T12:20:46.106Z,3.20
2018-12-16T12:23:23.666Z,3.10
2018-12-16T12:26:00.089Z,3.20
2018-12-16T12:28:40.569Z,3.20
2018-12-16T12:31:15.923Z,3.20
2018-12-16T12:33:52.135Z,3.30
2018-12-16T12:40:26.251Z,3.30
2018-12-16T12:42:54.453Z,3.30
2018-12-16T12:45:53.278Z,3.50
2018-12-16T12:48:55.167Z,3.50
2018-12-16T12:51:49.798Z,3.50
2018-12-16T12:54:17.629Z,3.60
2018-12-16T12:57:34.179Z,3.60
2018-12-16T13:00:01.706Z,3.50
2018-12-16T13:02:29.196Z,3.50
2018-12-16T13:04:56.706Z,3.60
2018-12-16T13:07:24.845Z,3.60
2018-12-16T13:09:52.491Z,3.70
2018-12-16T13:12:20.061Z,3.80
2018-12-16T13:14:48.048Z,3.80
2018-12-16T13:17:16.005Z,3.70
2018-12-16T13:19:44.040Z,3.60
2018-12-16T13:22:11.753Z,3.70
2018-12-16T13:24:47.131Z,3.80
2018-12-16T13:27:14.661Z,3.70
2018-12-16T13:29:42.185Z,3.70
2018-12-16T13:32:09.699Z,3.70
2018-12-16T13:34:37.298Z,3.60
2018-12-16T13:37:04.882Z,3.60
2018-12-16T13:39:32.453Z,3.60
2018-12-16T13:42:00.015Z,3.60
2018-12-16T13:44:27.574Z,3.50
2018-12-16T13:46:55.557Z,3.40
2018-12-16T13:49:23.050Z,3.30
2018-12-16T13:51:50.565Z,3.30
2018-12-16T13:54:18.097Z,3.20
2018-12-16T13:56:45.718Z,3.20
2018-12-16T13:59:13.437Z,3.20
2018-12-16T14:01:41.016Z,3.20
2018-12-16T14:04:09.207Z,3.10
2018-12-16T14:06:36.811Z,3.10
2018-12-16T14:09:06.311Z,3.10
2018-12-16T14:11:33.914Z,3.10
2018-12-16T14:14:01.670Z,3.10
2018-12-16T14:16:29.240Z,3.10
2018-12-16T14:18:56.762Z,3.10
2018-12-16T14:21:24.505Z,3.10
2018-12-16T14:23:52.608Z,3.10
2018-12-16T14:26:20.308Z,3.10
2018-12-16T14:28:47.822Z,3.10
2018-12-16T14:31:15.403Z,3.10
2018-12-16T14:33:43.233Z,3.10
2018-12-16T14:36:12.861Z,3.10
2018-12-16T14:38:40.410Z,3.00
2018-12-16T14:41:08.104Z,3.00
2018-12-16T14:43:35.910Z,2.90
2018-12-16T14:46:04.222Z,2.90
2018-12-16T14:48:31.739Z,2.90
2018-12-16T14:50:59.253Z,3.00
2018-12-16T14:53:26.770Z,3.00
2018-12-16T14:55:55.362Z,3.00
2018-12-16T14:58:23.129Z,3.00
2018-12-16T15:00:50.639Z,3.00
2018-12-16T15:16:21.740Z,3.00
2018-12-16T15:18:49.497Z,3.20
2018-12-16T15:21:17.129Z,3.10
2018-12-16T15:23:44.686Z,3.00
2018-12-16T15:26:12.247Z,2.90
2018-12-16T15:28:40.515Z,2.90
2018-12-16T15:31:08.095Z,2.80
2018-12-16T15:33:35.719Z,2.80
2018-12-16T15:36:03.644Z,2.90
2018-12-16T15:38:32.052Z,2.90
2018-12-16T15:41:02.457Z,2.90
2018-12-16T15:43:36.707Z,3.00
2018-12-16T15:46:05.997Z,3.00
2018-12-16T15:48:35.111Z,3.00
2018-12-16T15:51:08.214Z,3.00
2018-12-16T15:53:47.143Z,3.00
2018-12-16T15:59:13.080Z,3.10
2018-12-16T16:01:42.105Z,3.10
2018-12-16T16:04:10.566Z,3.10
2018-12-16T16:21:18.879Z,3.20
2018-12-16T16:42:05.287Z,3.30
2018-12-16T16:48:25.886Z,3.30
2018-12-16T16:54:34.308Z,3.30
2018-12-16T16:57:31.143Z,3.20
2018-12-16T17:14:16.946Z,2.80
2018-12-16T17:17:01.627Z,2.80
2018-12-16T17:19:43.431Z,2.70
2018-12-16T17:29:49.103Z,2.60
2018-12-16T17:32:25.961Z,2.50
2018-12-16T17:35:03.894Z,2.50
2018-12-16T17:37:35.645Z,2.50
2018-12-16T17:40:25.343Z,2.60
2018-12-16T17:43:10.826Z,2.60
2018-12-16T17:46:02.547Z,2.70
2018-12-16T17:55:50.608Z,2.60
2018-12-16T18:02:02.841Z,2.50
2018-12-16T18:04:49.223Z,2.60
2018-12-16T18:07:30.468Z,2.60
2018-12-16T18:31:13.654Z,2.50
2018-12-16T18:37:36.914Z,2.30
2018-12-16T18:40:16.880Z,2.20
2018-12-16T18:46:27.340Z,2.10
2018-12-16T18:52:46.951Z,1.90
2018-12-16T19:16:46.631Z,0.60
2018-12-16T19:47:56.154Z,-0.50
2018-12-16T19:50:23.933Z,-0.60
2018-12-16T19:52:51.538Z,-0.70
2018-12-16T19:55:19.523Z,-0.80
2018-12-16T19:57:47.189Z,-0.90
2018-12-16T20:07:34.017Z,-1.10
2018-12-16T20:10:01.748Z,-1.10
2018-12-16T20:12:30.624Z,-1.10
2018-12-16T20:14:58.784Z,-1.10
2018-12-16T20:17:28.272Z,-1.00
2018-12-16T20:19:55.834Z,-1.00
2018-12-16T20:22:23.469Z,-0.90
2018-12-16T20:24:53.472Z,-0.90
2018-12-16T20:27:21.130Z,-0.90
2018-12-16T20:29:49.532Z,-0.80
2018-12-16T20:32:17.477Z,-0.80
2018-12-16T20:34:45.025Z,-0.80
2018-12-16T20:37:12.600Z,-0.60
2018-12-16T20:39:40.877Z,-0.60
2018-12-16T20:44:40.775Z,-0.40
2018-12-16T20:47:08.356Z,-0.40
2018-12-16T20:49:36.003Z,-0.40
2018-12-16T20:52:04.264Z,-0.50
2018-12-16T20:54:31.926Z,-0.50
2018-12-16T20:56:59.451Z,-0.40
2018-12-16T20:59:29.954Z,-0.40
2018-12-16T21:02:04.918Z,-0.50
2018-12-16T21:04:32.511Z,-0.50
2018-12-16T21:07:00.599Z,-0.70
2018-12-16T21:09:28.686Z,-0.80
2018-12-16T21:12:00.663Z,-0.70
2018-12-16T21:14:34.138Z,-0.80
2018-12-16T21:20:13.938Z,-0.70
2018-12-16T21:22:41.752Z,-0.80
2018-12-16T21:25:11.410Z,-0.90
2018-12-16T21:27:39.014Z,-1.00
2018-12-16T21:30:09.361Z,-1.00
2018-12-16T21:32:39.319Z,-1.00
2018-12-16T21:35:07.090Z,-0.90
2018-12-16T21:37:36.017Z,-0.90
2018-12-16T21:40:05.327Z,-0.90
2018-12-16T21:42:33.886Z,-0.90
2018-12-16T21:45:01.756Z,-1.00
2018-12-16T21:47:29.586Z,-1.00
2018-12-16T21:49:57.160Z,-0.90
2018-12-16T21:52:24.758Z,-0.90
2018-12-16T21:54:53.025Z,-0.90
2018-12-16T21:57:20.743Z,-1.00
2018-12-16T21:59:50.008Z,-1.00
2018-12-16T22:02:18.084Z,-0.90
2018-12-16T22:04:46.403Z,-0.60
2018-12-16T22:07:14.451Z,-0.60
2018-12-16T22:09:42.370Z,-0.50
2018-12-16T22:12:10.217Z,-0.60
2018-12-16T22:14:38.453Z,-0.70
2018-12-16T22:17:06.088Z,-0.70
2018-12-16T22:19:34.338Z,-0.80
2018-12-16T22:22:01.959Z,-0.90
2018-12-16T22:24:29.561Z,-1.00
2018-12-16T22:26:58.847Z,-1.10
2018-12-16T22:29:26.519Z,-1.20
2018-12-16T22:31:55.497Z,-1.20
2018-12-16T22:34:23.052Z,-1.30
2018-12-16T22:36:51.601Z,-1.10
2018-12-16T22:39:22.169Z,-1.00
2018-12-16T22:41:49.731Z,-0.90
2018-12-16T22:44:18.035Z,-0.90
2018-12-16T22:46:45.657Z,-1.00
2018-12-16T22:49:13.232Z,-1.10
2018-12-16T22:51:42.393Z,-1.20
2018-12-16T22:54:10.005Z,-1.30
2018-12-16T22:56:37.592Z,-1.40
2018-12-16T22:59:05.199Z,-1.40
2018-12-16T23:01:39.652Z,-1.50
2018-12-16T23:04:07.201Z,-1.50
2018-12-16T23:06:34.739Z,-1.50
2018-12-16T23:09:02.382Z,-1.50
2018-12-16T23:11:39.982Z,-1.50
2018-12-16T23:14:07.548Z,-1.50
2018-12-16T23:16:35.196Z,-1.50
2018-12-16T23:19:04.833Z,-1.50
2018-12-16T23:21:32.418Z,-1.40
2018-12-16T23:24:00.247Z,-1.40
2018-12-16T23:26:27.814Z,-1.40
2018-12-16T23:28:55.369Z,-1.40
2018-12-16T23:31:23.486Z,-1.50
2018-12-16T23:36:23.370Z,-1.50
2018-12-16T23:38:50.919Z,-1.50
2018-12-16T23:41:19.864Z,-1.40
2018-12-16T23:43:48.122Z,-1.40
2018-12-16T23:46:15.640Z,-1.40
2018-12-16T23:48:44.848Z,-1.40
2018-12-16T23:51:14.314Z,-1.30
2018-12-16T23:53:45.414Z,-1.10
2018-12-16T23:56:12.970Z,-0.90
2018-12-16T23:58:41.319Z,-0.80
